Time;durP1;ratioP1;P1;durP2;ratioP2;P2;SDS_P1;SDS_P2;PMS_P1;PMS_P2;Temp;Humidity;BMP_temperature;BMP_pressure;BME280_temperature;BME280_humidity;BME280_pressure;Samples;Min_cycle;Max_cycle;Signal;HPM_P1;HPM_P2
2021/03/11 00:01:01;;;;;;;16.23;10.83;;;7.9;99.9;;;;;;;;;
2021/03/11 00:02:01;;;;;;;17.07;11.4;;;7.9;99.9;;;;;;;;;
2021/03/11 00:03:01;;;;;;;16.37;11.9;;;7.9;99.9;;;;;;;;;
2021/03/11 00:03:12;;;;;;;16.37;11.9;;;7.9;99.9;;;;;;;;;
2021/03/11 00:04:01;;;;;;;16.13;11.2;;;8;99.9;;;;;;;;;
2021/03/11 00:04:13;;;;;;;16.13;11.2;;;8;99.9;;;;;;;;;
2021/03/11 00:05:01;;;;;;;14.8;11.5;;;8;99.9;;;;;;;;;
2021/03/11 00:05:15;;;;;;;14.8;11.5;;;8;99.9;;;;;;;;;
2021/03/11 00:05:25;;;;;;;15.1;10.97;;;8.1;99.9;;;;;;;;;
2021/03/11 00:06:01;;;;;;;15.1;10.97;;;8.1;99.9;;;;;;;;;
2021/03/11 00:06:16;;;;;;;15.1;10.97;;;8.1;99.9;;;;;;;;;
2021/03/11 00:06:26;;;;;;;14.3;10.9;;;8;99.9;;;;;;;;;
2021/03/11 00:07:01;;;;;;;14.3;10.9;;;8;99.9;;;;;;;;;
2021/03/11 00:07:18;;;;;;;14.3;10.9;;;8;99.9;;;;;;;;;
2021/03/11 00:07:28;;;;;;;15.53;11.57;;;8;99.9;;;;;;;;;
2021/03/11 00:07:38;;;;;;;15.53;11.57;;;8;99.9;;;;;;;;;
2021/03/11 00:08:01;;;;;;;15.53;11.57;;;8;99.9;;;;;;;;;
2021/03/11 00:08:14;;;;;;;15.53;11.57;;;8;99.9;;;;;;;;;
2021/03/11 00:08:29;;;;;;;14.93;10.53;;;8;99.9;;;;;;;;;
2021/03/11 00:08:39;;;;;;;14.93;10.53;;;8;99.9;;;;;;;;;
2021/03/11 00:09:01;;;;;;;14.93;10.53;;;8;99.9;;;;;;;;;
2021/03/11 00:09:15;;;;;;;14.93;10.53;;;8;99.9;;;;;;;;;
2021/03/11 00:09:31;;;;;;;15.37;11.47;;;7.9;99.9;;;;;;;;;
2021/03/11 00:09:41;;;;;;;15.37;11.47;;;7.9;99.9;;;;;;;;;
2021/03/11 00:09:51;;;;;;;15.37;11.47;;;7.9;99.9;;;;;;;;;
2021/03/11 00:10:01;;;;;;;15.37;11.47;;;7.9;99.9;;;;;;;;;
2021/03/11 00:10:12;;;;;;;15.37;11.47;;;7.9;99.9;;;;;;;;;
2021/03/11 00:10:27;;;;;;;14.93;11.3;;;8;99.9;;;;;;;;;
2021/03/11 00:10:42;;;;;;;14.93;11.3;;;8;99.9;;;;;;;;;
2021/03/11 00:10:53;;;;;;;14.93;11.3;;;8;99.9;;;;;;;;;
2021/03/11 00:11:01;;;;;;;14.93;11.3;;;8;99.9;;;;;;;;;
2021/03/11 00:11:13;;;;;;;14.93;11.3;;;8;99.9;;;;;;;;;
2021/03/11 00:11:29;;;;;;;17.87;12.03;;;8;99.9;;;;;;;;;
2021/03/11 00:11:44;;;;;;;17.87;12.03;;;8;99.9;;;;;;;;;
2021/03/11 00:11:54;;;;;;;17.87;12.03;;;8;99.9;;;;;;;;;
2021/03/11 00:12:01;;;;;;;17.87;12.03;;;8;99.9;;;;;;;;;
2021/03/11 00:12:04;;;;;;;17.87;12.03;;;8;99.9;;;;;;;;;
2021/03/11 00:12:15;;;;;;;17.87;12.03;;;8;99.9;;;;;;;;;
2021/03/11 00:12:25;;;;;;;15.2;10.9;;;8;99.9;;;;;;;;;
2021/03/11 00:12:40;;;;;;;15.2;10.9;;;8;99.9;;;;;;;;;
2021/03/11 00:12:55;;;;;;;15.2;10.9;;;8;99.9;;;;;;;;;
2021/03/11 00:13:01;;;;;;;15.2;10.9;;;8;99.9;;;;;;;;;
2021/03/11 00:13:06;;;;;;;15.2;10.9;;;8;99.9;;;;;;;;;
2021/03/11 00:13:16;;;;;;;15.2;10.9;;;8;99.9;;;;;;;;;
2021/03/11 00:13:26;;;;;;;17.07;11.33;;;8;99.9;;;;;;;;;
2021/03/11 00:13:42;;;;;;;17.07;11.33;;;8;99.9;;;;;;;;;
2021/03/11 00:13:57;;;;;;;17.07;11.33;;;8;99.9;;;;;;;;;
2021/03/11 00:14:01;;;;;;;17.07;11.33;;;8;99.9;;;;;;;;;
2021/03/11 00:14:07;;;;;;;17.07;11.33;;;8;99.9;;;;;;;;;
2021/03/11 00:14:17;;;;;;;17.07;11.33;;;8;99.9;;;;;;;;;
2021/03/11 00:14:28;;;;;;;16.43;11.3;;;8.1;99.9;;;;;;;;;
2021/03/11 00:14:38;;;;;;;16.43;11.3;;;8.1;99.9;;;;;;;;;
2021/03/11 00:14:53;;;;;;;16.43;11.3;;;8.1;99.9;;;;;;;;;
2021/03/11 00:15:02;;;;;;;16.43;11.3;;;8.1;99.9;;;;;;;;;
2021/03/11 00:15:09;;;;;;;16.43;11.3;;;8.1;99.9;;;;;;;;;
2021/03/11 00:15:14;;;;;;;16.43;11.3;;;8.1;99.9;;;;;;;;;
2021/03/11 00:15:29;;;;;;;15.7;11;;;8.1;99.9;;;;;;;;;
2021/03/11 00:15:39;;;;;;;15.7;11;;;8.1;99.9;;;;;;;;;
2021/03/11 00:15:55;;;;;;;15.7;11;;;8.1;99.9;;;;;;;;;
2021/03/11 00:16:01;;;;;;;15.7;11;;;8.1;99.9;;;;;;;;;
2021/03/11 00:16:10;;;;;;;15.7;11;;;8.1;99.9;;;;;;;;;
2021/03/11 00:16:15;;;;;;;15.7;11;;;8.1;99.9;;;;;;;;;
2021/03/11 00:16:30;;;;;;;15.43;11.23;;;8.1;99.9;;;;;;;;;
2021/03/11 00:16:41;;;;;;;15.43;11.23;;;8.1;99.9;;;;;;;;;
2021/03/11 00:16:51;;;;;;;15.43;11.23;;;8.1;99.9;;;;;;;;;
2021/03/11 00:17:02;;;;;;;15.43;11.23;;;8.1;99.9;;;;;;;;;
2021/03/11 00:17:06;;;;;;;15.43;11.23;;;8.1;99.9;;;;;;;;;
2021/03/11 00:17:17;;;;;;;15.43;11.23;;;8.1;99.9;;;;;;;;;
2021/03/11 00:17:27;;;;;;;15.47;11;;;8.1;99.9;;;;;;;;;
2021/03/11 00:17:42;;;;;;;15.47;11;;;8.1;99.9;;;;;;;;;
2021/03/11 00:17:52;;;;;;;15.47;11;;;8.1;99.9;;;;;;;;;
2021/03/11 00:18:01;;;;;;;15.47;11;;;8.1;99.9;;;;;;;;;
2021/03/11 00:18:08;;;;;;;15.47;11;;;8.1;99.9;;;;;;;;;
2021/03/11 00:18:13;;;;;;;15.47;11;;;8.1;99.9;;;;;;;;;
2021/03/11 00:18:28;;;;;;;14.3;10.2;;;8.2;99.9;;;;;;;;;
2021/03/11 00:18:44;;;;;;;14.3;10.2;;;8.2;99.9;;;;;;;;;
2021/03/11 00:18:54;;;;;;;14.3;10.2;;;8.2;99.9;;;;;;;;;
2021/03/11 00:19:02;;;;;;;14.3;10.2;;;8.2;99.9;;;;;;;;;
2021/03/11 00:19:04;;;;;;;14.3;10.2;;;8.2;99.9;;;;;;;;;
2021/03/11 00:19:16;;;;;;;14.3;10.2;;;8.2;99.9;;;;;;;;;
2021/03/11 00:19:30;;;;;;;15.53;10.6;;;8.2;99.9;;;;;;;;;
2021/03/11 00:19:40;;;;;;;15.53;10.6;;;8.2;99.9;;;;;;;;;
2021/03/11 00:19:55;;;;;;;15.53;10.6;;;8.2;99.9;;;;;;;;;
2021/03/11 00:20:02;;;;;;;15.53;10.6;;;8.2;99.9;;;;;;;;;
2021/03/11 00:20:06;;;;;;;15.53;10.6;;;8.2;99.9;;;;;;;;;
2021/03/11 00:20:16;;;;;;;15.53;10.6;;;8.2;99.9;;;;;;;;;
2021/03/11 00:20:26;;;;;;;15.53;10.6;;;8.2;99.9;;;;;;;;;
2021/03/11 00:20:41;;;;;;;17.23;11.7;;;8.2;99.9;;;;;;;;;
2021/03/11 00:20:57;;;;;;;17.23;11.7;;;8.2;99.9;;;;;;;;;
2021/03/11 00:21:02;;;;;;;17.23;11.7;;;8.2;99.9;;;;;;;;;
2021/03/11 00:21:07;;;;;;;17.23;11.7;;;8.2;99.9;;;;;;;;;
2021/03/11 00:21:12;;;;;;;17.23;11.7;;;8.2;99.9;;;;;;;;;
2021/03/11 00:21:27;;;;;;;17.23;11.1;;;8.1;99.9;;;;;;;;;
2021/03/11 00:21:43;;;;;;;17.23;11.1;;;8.1;99.9;;;;;;;;;
2021/03/11 00:21:53;;;;;;;17.23;11.1;;;8.1;99.9;;;;;;;;;
2021/03/11 00:22:02;;;;;;;17.23;11.1;;;8.1;99.9;;;;;;;;;
2021/03/11 00:22:08;;;;;;;17.23;11.1;;;8.1;99.9;;;;;;;;;
2021/03/11 00:22:19;;;;;;;17.23;11.1;;;8.1;99.9;;;;;;;;;
2021/03/11 00:22:29;;;;;;;16.1;11;;;8.1;99.9;;;;;;;;;
2021/03/11 00:22:39;;;;;;;16.1;11;;;8.1;99.9;;;;;;;;;
2021/03/11 00:22:55;;;;;;;16.1;11;;;8.1;99.9;;;;;;;;;
2021/03/11 00:23:01;;;;;;;16.1;11;;;8.1;99.9;;;;;;;;;
2021/03/11 00:23:10;;;;;;;16.1;11;;;8.1;99.9;;;;;;;;;
2021/03/11 00:23:15;;;;;;;16.1;11;;;8.1;99.9;;;;;;;;;
2021/03/11 00:23:27;;;;;;;16.1;11;;;8.1;99.9;;;;;;;;;
2021/03/11 00:23:41;;;;;;;16.83;10.77;;;8.2;99.9;;;;;;;;;
2021/03/11 00:23:56;;;;;;;16.83;10.77;;;8.2;99.9;;;;;;;;;
2021/03/11 00:24:02;;;;;;;16.83;10.77;;;8.2;99.9;;;;;;;;;
2021/03/11 00:24:06;;;;;;;16.83;10.77;;;8.2;99.9;;;;;;;;;
2021/03/11 00:24:16;;;;;;;16.83;10.77;;;8.2;99.9;;;;;;;;;
2021/03/11 00:24:32;;;;;;;13.2;10.03;;;8.2;99.9;;;;;;;;;
2021/03/11 00:24:42;;;;;;;13.2;10.03;;;8.2;99.9;;;;;;;;;
2021/03/11 00:24:52;;;;;;;13.2;10.03;;;8.2;99.9;;;;;;;;;
2021/03/11 00:25:02;;;;;;;13.2;10.03;;;8.2;99.9;;;;;;;;;
2021/03/11 00:25:08;;;;;;;13.2;10.03;;;8.2;99.9;;;;;;;;;
2021/03/11 00:25:13;;;;;;;13.2;10.03;;;8.2;99.9;;;;;;;;;
2021/03/11 00:25:28;;;;;;;16.87;10.73;;;8.1;99.9;;;;;;;;;
2021/03/11 00:25:38;;;;;;;16.87;10.73;;;8.1;99.9;;;;;;;;;
2021/03/11 00:25:54;;;;;;;16.87;10.73;;;8.1;99.9;;;;;;;;;
2021/03/11 00:26:02;;;;;;;16.87;10.73;;;8.1;99.9;;;;;;;;;
2021/03/11 00:26:09;;;;;;;16.87;10.73;;;8.1;99.9;;;;;;;;;
2021/03/11 00:26:14;;;;;;;16.87;10.73;;;8.1;99.9;;;;;;;;;
2021/03/11 00:26:30;;;;;;;14.13;10.7;;;8.1;99.9;;;;;;;;;
2021/03/11 00:26:45;;;;;;;14.13;10.7;;;8.1;99.9;;;;;;;;;
2021/03/11 00:26:55;;;;;;;14.13;10.7;;;8.1;99.9;;;;;;;;;
2021/03/11 00:27:02;;;;;;;14.13;10.7;;;8.1;99.9;;;;;;;;;
2021/03/11 00:27:05;;;;;;;14.13;10.7;;;8.1;99.9;;;;;;;;;
2021/03/11 00:27:16;;;;;;;14.13;10.7;;;8.1;99.9;;;;;;;;;
2021/03/11 00:27:26;;;;;;;14.13;10.7;;;8.1;99.9;;;;;;;;;
2021/03/11 00:27:41;;;;;;;14.6;10.6;;;8.1;99.9;;;;;;;;;
2021/03/11 00:27:52;;;;;;;14.6;10.6;;;8.1;99.9;;;;;;;;;
2021/03/11 00:28:01;;;;;;;14.6;10.6;;;8.1;99.9;;;;;;;;;
2021/03/11 00:28:07;;;;;;;14.6;10.6;;;8.1;99.9;;;;;;;;;
2021/03/11 00:28:12;;;;;;;14.6;10.6;;;8.1;99.9;;;;;;;;;
2021/03/11 00:28:27;;;;;;;14.6;10.6;;;8.1;99.9;;;;;;;;;
2021/03/11 00:28:43;;;;;;;14;10.33;;;8.1;99.9;;;;;;;;;
2021/03/11 00:28:58;;;;;;;14;10.33;;;8.1;99.9;;;;;;;;;
2021/03/11 00:29:02;;;;;;;14;10.33;;;8.1;99.9;;;;;;;;;
2021/03/11 00:29:08;;;;;;;14;10.33;;;8.1;99.9;;;;;;;;;
2021/03/11 00:29:13;;;;;;;14;10.33;;;8.1;99.9;;;;;;;;;
2021/03/11 00:29:29;;;;;;;14;10.33;;;8.1;99.9;;;;;;;;;
2021/03/11 00:29:39;;;;;;;15.5;10;;;8.1;99.9;;;;;;;;;
2021/03/11 00:29:54;;;;;;;15.5;10;;;8.1;99.9;;;;;;;;;
2021/03/11 00:30:02;;;;;;;15.5;10;;;8.1;99.9;;;;;;;;;
2021/03/11 00:30:05;;;;;;;15.5;10;;;8.1;99.9;;;;;;;;;
2021/03/11 00:30:15;;;;;;;15.5;10;;;8.1;99.9;;;;;;;;;
2021/03/11 00:30:25;;;;;;;15.5;10;;;8.1;99.9;;;;;;;;;
2021/03/11 00:30:40;;;;;;;15.53;11;;;8.2;99.9;;;;;;;;;
2021/03/11 00:30:56;;;;;;;15.53;11;;;8.2;99.9;;;;;;;;;
2021/03/11 00:31:02;;;;;;;15.53;11;;;8.2;99.9;;;;;;;;;
2021/03/11 00:31:11;;;;;;;15.53;11;;;8.2;99.9;;;;;;;;;
2021/03/11 00:31:16;;;;;;;15.53;11;;;8.2;99.9;;;;;;;;;
2021/03/11 00:31:27;;;;;;;15.53;11;;;8.2;99.9;;;;;;;;;
2021/03/11 00:31:42;;;;;;;14.87;10.17;;;8.1;99.9;;;;;;;;;
2021/03/11 00:31:52;;;;;;;14.87;10.17;;;8.1;99.9;;;;;;;;;
2021/03/11 00:32:02;;;;;;;14.87;10.17;;;8.1;99.9;;;;;;;;;
2021/03/11 00:32:08;;;;;;;14.87;10.17;;;8.1;99.9;;;;;;;;;
2021/03/11 00:32:18;;;;;;;14.87;10.17;;;8.1;99.9;;;;;;;;;
2021/03/11 00:32:28;;;;;;;14.87;10.17;;;8.1;99.9;;;;;;;;;
2021/03/11 00:32:38;;;;;;;14.33;10.97;;;8.2;99.9;;;;;;;;;
2021/03/11 00:32:54;;;;;;;14.33;10.97;;;8.2;99.9;;;;;;;;;
2021/03/11 00:33:01;;;;;;;14.33;10.97;;;8.2;99.9;;;;;;;;;
2021/03/11 00:33:09;;;;;;;14.33;10.97;;;8.2;99.9;;;;;;;;;
2021/03/11 00:33:14;;;;;;;14.33;10.97;;;8.2;99.9;;;;;;;;;
2021/03/11 00:33:29;;;;;;;14.33;10.97;;;8.2;99.9;;;;;;;;;
2021/03/11 00:33:40;;;;;;;14.2;10.07;;;8.2;99.9;;;;;;;;;
2021/03/11 00:33:55;;;;;;;14.2;10.07;;;8.2;99.9;;;;;;;;;
2021/03/11 00:34:02;;;;;;;14.2;10.07;;;8.2;99.9;;;;;;;;;
2021/03/11 00:34:05;;;;;;;14.2;10.07;;;8.2;99.9;;;;;;;;;
2021/03/11 00:34:16;;;;;;;14.2;10.07;;;8.2;99.9;;;;;;;;;
2021/03/11 00:34:31;;;;;;;14.8;9.97;;;8.2;99.9;;;;;;;;;
2021/03/11 00:34:41;;;;;;;14.8;9.97;;;8.2;99.9;;;;;;;;;
2021/03/11 00:34:51;;;;;;;14.8;9.97;;;8.2;99.9;;;;;;;;;
2021/03/11 00:35:02;;;;;;;14.8;9.97;;;8.2;99.9;;;;;;;;;
2021/03/11 00:35:07;;;;;;;14.8;9.97;;;8.2;99.9;;;;;;;;;
2021/03/11 00:35:12;;;;;;;14.8;9.97;;;8.2;99.9;;;;;;;;;
2021/03/11 00:35:27;;;;;;;14.8;9.97;;;8.2;99.9;;;;;;;;;
2021/03/11 00:35:43;;;;;;;16.47;11.3;;;8.2;99.9;;;;;;;;;
2021/03/11 00:35:53;;;;;;;16.47;11.3;;;8.2;99.9;;;;;;;;;
2021/03/11 00:36:02;;;;;;;16.47;11.3;;;8.2;99.9;;;;;;;;;
2021/03/11 00:36:08;;;;;;;16.47;11.3;;;8.2;99.9;;;;;;;;;
2021/03/11 00:36:13;;;;;;;16.47;11.3;;;8.2;99.9;;;;;;;;;
2021/03/11 00:36:29;;;;;;;16.47;11.3;;;8.2;99.9;;;;;;;;;
2021/03/11 00:36:44;;;;;;;16.33;10.6;;;8.2;99.9;;;;;;;;;
2021/03/11 00:36:54;;;;;;;16.33;10.6;;;8.2;99.9;;;;;;;;;
2021/03/11 00:37:02;;;;;;;16.33;10.6;;;8.2;99.9;;;;;;;;;
2021/03/11 00:37:04;;;;;;;16.33;10.6;;;8.2;99.9;;;;;;;;;
2021/03/11 00:37:15;;;;;;;16.33;10.6;;;8.2;99.9;;;;;;;;;
2021/03/11 00:37:25;;;;;;;16.33;10.6;;;8.2;99.9;;;;;;;;;
2021/03/11 00:37:40;;;;;;;13.83;10.6;;;8.2;99.9;;;;;;;;;
2021/03/11 00:37:56;;;;;;;13.83;10.6;;;8.2;99.9;;;;;;;;;
2021/03/11 00:38:01;;;;;;;13.83;10.6;;;8.2;99.9;;;;;;;;;
2021/03/11 00:38:06;;;;;;;13.83;10.6;;;8.2;99.9;;;;;;;;;
2021/03/11 00:38:16;;;;;;;13.83;10.6;;;8.2;99.9;;;;;;;;;
2021/03/11 00:38:26;;;;;;;13.83;10.6;;;8.2;99.9;;;;;;;;;
2021/03/11 00:38:42;;;;;;;11.5;9.43;;;8.1;99.9;;;;;;;;;
2021/03/11 00:38:57;;;;;;;11.5;9.43;;;8.1;99.9;;;;;;;;;
2021/03/11 00:39:02;;;;;;;11.5;9.43;;;8.1;99.9;;;;;;;;;
2021/03/11 00:39:07;;;;;;;11.5;9.43;;;8.1;99.9;;;;;;;;;
2021/03/11 00:39:12;;;;;;;11.5;9.43;;;8.1;99.9;;;;;;;;;
2021/03/11 00:39:28;;;;;;;11.5;9.43;;;8.1;99.9;;;;;;;;;
2021/03/11 00:39:38;;;;;;;12.9;10.23;;;8.2;99.9;;;;;;;;;
2021/03/11 00:39:53;;;;;;;12.9;10.23;;;8.2;99.9;;;;;;;;;
2021/03/11 00:40:02;;;;;;;12.9;10.23;;;8.2;99.9;;;;;;;;;
2021/03/11 00:40:09;;;;;;;12.9;10.23;;;8.2;99.9;;;;;;;;;
2021/03/11 00:40:14;;;;;;;12.9;10.23;;;8.2;99.9;;;;;;;;;
2021/03/11 00:40:29;;;;;;;12.9;10.23;;;8.2;99.9;;;;;;;;;
2021/03/11 00:40:39;;;;;;;17.03;10.4;;;8.2;99.9;;;;;;;;;
2021/03/11 00:40:55;;;;;;;17.03;10.4;;;8.2;99.9;;;;;;;;;
2021/03/11 00:41:02;;;;;;;17.03;10.4;;;8.2;99.9;;;;;;;;;
2021/03/11 00:41:11;;;;;;;17.03;10.4;;;8.2;99.9;;;;;;;;;
2021/03/11 00:41:15;;;;;;;17.03;10.4;;;8.2;99.9;;;;;;;;;
2021/03/11 00:41:26;;;;;;;17.03;10.4;;;8.2;99.9;;;;;;;;;
2021/03/11 00:41:41;;;;;;;15.03;10.17;;;8.1;99.9;;;;;;;;;
2021/03/11 00:41:51;;;;;;;15.03;10.17;;;8.1;99.9;;;;;;;;;
2021/03/11 00:42:02;;;;;;;15.03;10.17;;;8.1;99.9;;;;;;;;;
2021/03/11 00:42:07;;;;;;;15.03;10.17;;;8.1;99.9;;;;;;;;;
2021/03/11 00:42:17;;;;;;;15.03;10.17;;;8.1;99.9;;;;;;;;;
2021/03/11 00:42:27;;;;;;;15.03;10.17;;;8.1;99.9;;;;;;;;;
2021/03/11 00:42:42;;;;;;;14.5;10.97;;;8.1;99.9;;;;;;;;;
2021/03/11 00:42:53;;;;;;;14.5;10.97;;;8.1;99.9;;;;;;;;;
2021/03/11 00:43:01;;;;;;;14.5;10.97;;;8.1;99.9;;;;;;;;;
2021/03/11 00:43:10;;;;;;;14.5;10.97;;;8.1;99.9;;;;;;;;;
2021/03/11 00:43:14;;;;;;;14.5;10.97;;;8.1;99.9;;;;;;;;;
2021/03/11 00:43:28;;;;;;;14.5;10.97;;;8.1;99.9;;;;;;;;;
2021/03/11 00:43:39;;;;;;;15.8;11.13;;;8.2;99.9;;;;;;;;;
2021/03/11 00:43:54;;;;;;;15.8;11.13;;;8.2;99.9;;;;;;;;;
2021/03/11 00:44:02;;;;;;;15.8;11.13;;;8.2;99.9;;;;;;;;;
2021/03/11 00:44:04;;;;;;;15.8;11.13;;;8.2;99.9;;;;;;;;;
2021/03/11 00:44:15;;;;;;;15.8;11.13;;;8.2;99.9;;;;;;;;;
2021/03/11 00:44:30;;;;;;;15.8;11.13;;;8.2;99.9;;;;;;;;;
2021/03/11 00:44:40;;;;;;;16.07;9.93;;;8.2;99.9;;;;;;;;;
2021/03/11 00:44:55;;;;;;;16.07;9.93;;;8.2;99.9;;;;;;;;;
2021/03/11 00:45:01;;;;;;;16.07;9.93;;;8.2;99.9;;;;;;;;;
2021/03/11 00:45:06;;;;;;;16.07;9.93;;;8.2;99.9;;;;;;;;;
2021/03/11 00:45:16;;;;;;;16.07;9.93;;;8.2;99.9;;;;;;;;;
2021/03/11 00:45:26;;;;;;;16.07;9.93;;;8.2;99.9;;;;;;;;;
2021/03/11 00:45:44;;;;;;;14.83;10.53;;;8.2;99.9;;;;;;;;;
2021/03/11 00:45:52;;;;;;;14.83;10.53;;;8.2;99.9;;;;;;;;;
2021/03/11 00:46:02;;;;;;;14.83;10.53;;;8.2;99.9;;;;;;;;;
2021/03/11 00:46:07;;;;;;;14.83;10.53;;;8.2;99.9;;;;;;;;;
2021/03/11 00:46:12;;;;;;;14.83;10.53;;;8.2;99.9;;;;;;;;;
2021/03/11 00:46:28;;;;;;;14.83;10.53;;;8.2;99.9;;;;;;;;;
2021/03/11 00:46:43;;;;;;;15.7;10.63;;;8.2;99.9;;;;;;;;;
2021/03/11 00:46:53;;;;;;;15.7;10.63;;;8.2;99.9;;;;;;;;;
2021/03/11 00:47:02;;;;;;;15.7;10.63;;;8.2;99.9;;;;;;;;;
2021/03/11 00:47:09;;;;;;;15.7;10.63;;;8.2;99.9;;;;;;;;;
2021/03/11 00:47:14;;;;;;;15.7;10.63;;;8.2;99.9;;;;;;;;;
2021/03/11 00:47:29;;;;;;;15.7;10.63;;;8.2;99.9;;;;;;;;;
2021/03/11 00:47:39;;;;;;;15.73;10.23;;;8.3;99.9;;;;;;;;;
2021/03/11 00:47:55;;;;;;;15.73;10.23;;;8.3;99.9;;;;;;;;;
2021/03/11 00:48:01;;;;;;;15.73;10.23;;;8.3;99.9;;;;;;;;;
2021/03/11 00:48:05;;;;;;;15.73;10.23;;;8.3;99.9;;;;;;;;;
2021/03/11 00:48:15;;;;;;;15.73;10.23;;;8.3;99.9;;;;;;;;;
2021/03/11 00:48:25;;;;;;;15.73;10.23;;;8.3;99.9;;;;;;;;;
2021/03/11 00:48:41;;;;;;;15.77;10.67;;;8.3;99.9;;;;;;;;;
2021/03/11 00:48:56;;;;;;;15.77;10.67;;;8.3;99.9;;;;;;;;;
2021/03/11 00:49:02;;;;;;;15.77;10.67;;;8.3;99.9;;;;;;;;;
2021/03/11 00:49:06;;;;;;;15.77;10.67;;;8.3;99.9;;;;;;;;;
2021/03/11 00:49:17;;;;;;;15.77;10.67;;;8.3;99.9;;;;;;;;;
2021/03/11 00:49:27;;;;;;;15.77;10.67;;;8.3;99.9;;;;;;;;;
2021/03/11 00:49:42;;;;;;;13;10.4;;;8.2;99.9;;;;;;;;;
2021/03/11 00:49:52;;;;;;;13;10.4;;;8.2;99.9;;;;;;;;;
2021/03/11 00:50:01;;;;;;;13;10.4;;;8.2;99.9;;;;;;;;;
2021/03/11 00:50:08;;;;;;;13;10.4;;;8.2;99.9;;;;;;;;;
2021/03/11 00:50:13;;;;;;;13;10.4;;;8.2;99.9;;;;;;;;;
2021/03/11 00:50:28;;;;;;;13;10.4;;;8.2;99.9;;;;;;;;;
2021/03/11 00:50:39;;;;;;;14.03;9.93;;;8.3;99.9;;;;;;;;;
2021/03/11 00:50:54;;;;;;;14.03;9.93;;;8.3;99.9;;;;;;;;;
2021/03/11 00:51:02;;;;;;;14.03;9.93;;;8.3;99.9;;;;;;;;;
2021/03/11 00:51:09;;;;;;;14.03;9.93;;;8.3;99.9;;;;;;;;;
2021/03/11 00:51:14;;;;;;;14.03;9.93;;;8.3;99.9;;;;;;;;;
2021/03/11 00:51:30;;;;;;;14.03;9.93;;;8.3;99.9;;;;;;;;;
2021/03/11 00:51:40;;;;;;;15;9.67;;;8.2;99.9;;;;;;;;;
2021/03/11 00:51:55;;;;;;;15;9.67;;;8.2;99.9;;;;;;;;;
2021/03/11 00:52:02;;;;;;;15;9.67;;;8.2;99.9;;;;;;;;;
2021/03/11 00:52:06;;;;;;;15;9.67;;;8.2;99.9;;;;;;;;;
2021/03/11 00:52:16;;;;;;;15;9.67;;;8.2;99.9;;;;;;;;;
2021/03/11 00:52:26;;;;;;;15;9.67;;;8.2;99.9;;;;;;;;;
2021/03/11 00:52:42;;;;;;;15.6;10.57;;;8.3;99.9;;;;;;;;;
2021/03/11 00:52:52;;;;;;;15.6;10.57;;;8.3;99.9;;;;;;;;;
2021/03/11 00:53:02;;;;;;;15.6;10.57;;;8.3;99.9;;;;;;;;;
2021/03/11 00:53:07;;;;;;;15.6;10.57;;;8.3;99.9;;;;;;;;;
2021/03/11 00:53:12;;;;;;;15.6;10.57;;;8.3;99.9;;;;;;;;;
2021/03/11 00:53:28;;;;;;;15.6;10.57;;;8.3;99.9;;;;;;;;;
2021/03/11 00:53:45;;;;;;;12.93;10.3;;;8.2;99.9;;;;;;;;;
2021/03/11 00:53:53;;;;;;;12.93;10.3;;;8.2;99.9;;;;;;;;;
2021/03/11 00:54:02;;;;;;;12.93;10.3;;;8.2;99.9;;;;;;;;;
2021/03/11 00:54:08;;;;;;;12.93;10.3;;;8.2;99.9;;;;;;;;;
2021/03/11 00:54:14;;;;;;;12.93;10.3;;;8.2;99.9;;;;;;;;;
2021/03/11 00:54:29;;;;;;;12.93;10.3;;;8.2;99.9;;;;;;;;;
2021/03/11 00:54:39;;;;;;;14.83;10.13;;;8.2;99.9;;;;;;;;;
2021/03/11 00:54:55;;;;;;;14.83;10.13;;;8.2;99.9;;;;;;;;;
2021/03/11 00:55:01;;;;;;;14.83;10.13;;;8.2;99.9;;;;;;;;;
2021/03/11 00:55:07;;;;;;;14.83;10.13;;;8.2;99.9;;;;;;;;;
2021/03/11 00:55:15;;;;;;;14.83;10.13;;;8.2;99.9;;;;;;;;;
2021/03/11 00:55:28;;;;;;;14.83;10.13;;;8.2;99.9;;;;;;;;;
2021/03/11 00:55:41;;;;;;;17.83;11.57;;;8.2;99.9;;;;;;;;;
2021/03/11 00:55:56;;;;;;;17.83;11.57;;;8.2;99.9;;;;;;;;;
2021/03/11 00:56:02;;;;;;;17.83;11.57;;;8.2;99.9;;;;;;;;;
2021/03/11 00:56:06;;;;;;;17.83;11.57;;;8.2;99.9;;;;;;;;;
2021/03/11 00:56:16;;;;;;;17.83;11.57;;;8.2;99.9;;;;;;;;;
2021/03/11 00:56:27;;;;;;;17.83;11.57;;;8.2;99.9;;;;;;;;;
2021/03/11 00:56:42;;;;;;;15.37;10.7;;;8.3;99.9;;;;;;;;;
2021/03/11 00:56:52;;;;;;;15.37;10.7;;;8.3;99.9;;;;;;;;;
2021/03/11 00:57:02;;;;;;;15.37;10.7;;;8.3;99.9;;;;;;;;;
2021/03/11 00:57:08;;;;;;;15.37;10.7;;;8.3;99.9;;;;;;;;;
2021/03/11 00:57:13;;;;;;;15.37;10.7;;;8.3;99.9;;;;;;;;;
2021/03/11 00:57:28;;;;;;;15.37;10.7;;;8.3;99.9;;;;;;;;;
2021/03/11 00:57:38;;;;;;;15.63;11.1;;;8.2;99.9;;;;;;;;;
2021/03/11 00:57:54;;;;;;;15.63;11.1;;;8.2;99.9;;;;;;;;;
2021/03/11 00:58:02;;;;;;;15.63;11.1;;;8.2;99.9;;;;;;;;;
2021/03/11 00:58:12;;;;;;;15.63;11.1;;;8.2;99.9;;;;;;;;;
2021/03/11 00:58:14;;;;;;;15.63;11.1;;;8.2;99.9;;;;;;;;;
2021/03/11 00:58:30;;;;;;;15.63;11.1;;;8.2;99.9;;;;;;;;;
2021/03/11 00:58:40;;;;;;;15.1;10.7;;;8.2;99.9;;;;;;;;;
2021/03/11 00:58:55;;;;;;;15.1;10.7;;;8.2;99.9;;;;;;;;;
2021/03/11 00:59:02;;;;;;;15.1;10.7;;;8.2;99.9;;;;;;;;;
2021/03/11 00:59:05;;;;;;;15.1;10.7;;;8.2;99.9;;;;;;;;;
2021/03/11 00:59:16;;;;;;;15.1;10.7;;;8.2;99.9;;;;;;;;;
2021/03/11 00:59:26;;;;;;;15.1;10.7;;;8.2;99.9;;;;;;;;;
2021/03/11 00:59:41;;;;;;;14.47;10.9;;;8.2;99.9;;;;;;;;;
2021/03/11 00:59:52;;;;;;;14.47;10.9;;;8.2;99.9;;;;;;;;;
2021/03/11 01:00:01;;;;;;;14.47;10.9;;;8.2;99.9;;;;;;;;;
2021/03/11 01:00:07;;;;;;;14.47;10.9;;;8.2;99.9;;;;;;;;;
2021/03/11 01:00:12;;;;;;;14.47;10.9;;;8.2;99.9;;;;;;;;;
2021/03/11 01:00:27;;;;;;;14.47;10.9;;;8.2;99.9;;;;;;;;;
2021/03/11 01:00:43;;;;;;;15.43;10.03;;;8.2;99.9;;;;;;;;;
2021/03/11 01:00:53;;;;;;;15.43;10.03;;;8.2;99.9;;;;;;;;;
2021/03/11 01:01:02;;;;;;;15.43;10.03;;;8.2;99.9;;;;;;;;;
2021/03/11 01:01:08;;;;;;;15.43;10.03;;;8.2;99.9;;;;;;;;;
2021/03/11 01:01:13;;;;;;;15.43;10.03;;;8.2;99.9;;;;;;;;;
2021/03/11 01:01:30;;;;;;;15.43;10.03;;;8.2;99.9;;;;;;;;;
2021/03/11 01:01:39;;;;;;;18.27;11.03;;;8.2;99.9;;;;;;;;;
2021/03/11 01:01:54;;;;;;;18.27;11.03;;;8.2;99.9;;;;;;;;;
2021/03/11 01:02:02;;;;;;;18.27;11.03;;;8.2;99.9;;;;;;;;;
2021/03/11 01:02:05;;;;;;;18.27;11.03;;;8.2;99.9;;;;;;;;;
2021/03/11 01:02:20;;;;;;;18.27;11.03;;;8.2;99.9;;;;;;;;;
2021/03/11 01:02:30;;;;;;;18.27;11.03;;;8.2;99.9;;;;;;;;;
2021/03/11 01:02:40;;;;;;;13.1;9.6;;;8.2;99.9;;;;;;;;;
2021/03/11 01:02:56;;;;;;;13.1;9.6;;;8.2;99.9;;;;;;;;;
2021/03/11 01:03:02;;;;;;;13.1;9.6;;;8.2;99.9;;;;;;;;;
2021/03/11 01:03:06;;;;;;;13.1;9.6;;;8.2;99.9;;;;;;;;;
2021/03/11 01:03:16;;;;;;;13.1;9.6;;;8.2;99.9;;;;;;;;;
2021/03/11 01:03:27;;;;;;;13.1;9.6;;;8.2;99.9;;;;;;;;;
2021/03/11 01:03:42;;;;;;;13.17;9.77;;;8.3;99.9;;;;;;;;;
2021/03/11 01:03:52;;;;;;;13.17;9.77;;;8.3;99.9;;;;;;;;;
2021/03/11 01:04:02;;;;;;;13.17;9.77;;;8.3;99.9;;;;;;;;;
2021/03/11 01:04:07;;;;;;;13.17;9.77;;;8.3;99.9;;;;;;;;;
2021/03/11 01:04:13;;;;;;;13.17;9.77;;;8.3;99.9;;;;;;;;;
2021/03/11 01:04:33;;;;;;;13.17;9.77;;;8.3;99.9;;;;;;;;;
2021/03/11 01:04:43;;;;;;;13.4;9.9;;;8.3;99.9;;;;;;;;;
2021/03/11 01:04:54;;;;;;;13.4;9.9;;;8.3;99.9;;;;;;;;;
2021/03/11 01:05:01;;;;;;;13.4;9.9;;;8.3;99.9;;;;;;;;;
2021/03/11 01:05:09;;;;;;;13.4;9.9;;;8.3;99.9;;;;;;;;;
2021/03/11 01:05:14;;;;;;;13.4;9.9;;;8.3;99.9;;;;;;;;;
2021/03/11 01:05:29;;;;;;;13.4;9.9;;;8.3;99.9;;;;;;;;;
2021/03/11 01:05:40;;;;;;;13.47;9.97;;;8.4;99.9;;;;;;;;;
2021/03/11 01:05:55;;;;;;;13.47;9.97;;;8.4;99.9;;;;;;;;;
2021/03/11 01:06:02;;;;;;;13.47;9.97;;;8.4;99.9;;;;;;;;;
2021/03/11 01:06:05;;;;;;;13.47;9.97;;;8.4;99.9;;;;;;;;;
2021/03/11 01:06:16;;;;;;;13.47;9.97;;;8.4;99.9;;;;;;;;;
2021/03/11 01:06:26;;;;;;;13.47;9.97;;;8.4;99.9;;;;;;;;;
2021/03/11 01:06:46;;;;;;;13.3;9.87;;;8.2;99.9;;;;;;;;;
2021/03/11 01:06:56;;;;;;;13.3;9.87;;;8.2;99.9;;;;;;;;;
2021/03/11 01:07:02;;;;;;;13.3;9.87;;;8.2;99.9;;;;;;;;;
2021/03/11 01:07:07;;;;;;;13.3;9.87;;;8.2;99.9;;;;;;;;;
2021/03/11 01:07:12;;;;;;;13.3;9.87;;;8.2;99.9;;;;;;;;;
2021/03/11 01:07:27;;;;;;;13.3;9.87;;;8.2;99.9;;;;;;;;;
2021/03/11 01:07:43;;;;;;;13.9;10.4;;;8.3;99.9;;;;;;;;;
2021/03/11 01:07:53;;;;;;;13.9;10.4;;;8.3;99.9;;;;;;;;;
2021/03/11 01:08:02;;;;;;;13.9;10.4;;;8.3;99.9;;;;;;;;;
2021/03/11 01:08:08;;;;;;;13.9;10.4;;;8.3;99.9;;;;;;;;;
2021/03/11 01:08:13;;;;;;;13.9;10.4;;;8.3;99.9;;;;;;;;;
2021/03/11 01:08:29;;;;;;;13.9;10.4;;;8.3;99.9;;;;;;;;;
2021/03/11 01:08:39;;;;;;;13.9;10.4;;;8.3;99.9;;;;;;;;;
2021/03/11 01:08:59;;;;;;;16.17;10.4;;;8.3;99.9;;;;;;;;;
2021/03/11 01:09:02;;;;;;;16.17;10.4;;;8.3;99.9;;;;;;;;;
2021/03/11 01:09:10;;;;;;;16.17;10.4;;;8.3;99.9;;;;;;;;;
2021/03/11 01:09:15;;;;;;;16.17;10.4;;;8.3;99.9;;;;;;;;;
2021/03/11 01:09:25;;;;;;;16.17;10.4;;;8.3;99.9;;;;;;;;;
2021/03/11 01:09:40;;;;;;;16.17;10.4;;;8.3;99.9;;;;;;;;;
2021/03/11 01:09:56;;;;;;;13;10;;;8.3;99.9;;;;;;;;;
2021/03/11 01:10:01;;;;;;;13;10;;;8.3;99.9;;;;;;;;;
2021/03/11 01:10:06;;;;;;;13;10;;;8.3;99.9;;;;;;;;;
2021/03/11 01:10:16;;;;;;;13;10;;;8.3;99.9;;;;;;;;;
2021/03/11 01:10:26;;;;;;;13;10;;;8.3;99.9;;;;;;;;;
2021/03/11 01:10:42;;;;;;;14.47;9.87;;;8.3;99.9;;;;;;;;;
2021/03/11 01:10:52;;;;;;;14.47;9.87;;;8.3;99.9;;;;;;;;;
2021/03/11 01:11:02;;;;;;;14.47;9.87;;;8.3;99.9;;;;;;;;;
2021/03/11 01:11:12;;;;;;;14.47;9.87;;;8.3;99.9;;;;;;;;;
2021/03/11 01:11:12;;;;;;;14.47;9.87;;;8.3;99.9;;;;;;;;;
2021/03/11 01:11:28;;;;;;;14.47;9.87;;;8.3;99.9;;;;;;;;;
2021/03/11 01:11:38;;;;;;;14.47;9.87;;;8.3;99.9;;;;;;;;;
2021/03/11 01:11:53;;;;;;;14.33;9.3;;;8.4;99.9;;;;;;;;;
2021/03/11 01:12:01;;;;;;;14.33;9.3;;;8.4;99.9;;;;;;;;;
2021/03/11 01:12:09;;;;;;;14.33;9.3;;;8.4;99.9;;;;;;;;;
2021/03/11 01:12:14;;;;;;;14.33;9.3;;;8.4;99.9;;;;;;;;;
2021/03/11 01:12:29;;;;;;;14.33;9.3;;;8.4;99.9;;;;;;;;;
2021/03/11 01:12:40;;;;;;;14.33;9.3;;;8.4;99.9;;;;;;;;;
2021/03/11 01:12:55;;;;;;;14.07;9.77;;;8.3;99.9;;;;;;;;;
2021/03/11 01:13:02;;;;;;;14.07;9.77;;;8.3;99.9;;;;;;;;;
2021/03/11 01:13:05;;;;;;;14.07;9.77;;;8.3;99.9;;;;;;;;;
2021/03/11 01:13:15;;;;;;;14.07;9.77;;;8.3;99.9;;;;;;;;;
2021/03/11 01:13:26;;;;;;;14.07;9.77;;;8.3;99.9;;;;;;;;;
2021/03/11 01:13:41;;;;;;;14.07;9.77;;;8.3;99.9;;;;;;;;;
2021/03/11 01:13:51;;;;;;;14.43;9.87;;;8.3;99.9;;;;;;;;;
2021/03/11 01:14:02;;;;;;;14.43;9.87;;;8.3;99.9;;;;;;;;;
2021/03/11 01:14:07;;;;;;;14.43;9.87;;;8.3;99.9;;;;;;;;;
2021/03/11 01:14:12;;;;;;;14.43;9.87;;;8.3;99.9;;;;;;;;;
2021/03/11 01:14:27;;;;;;;14.43;9.87;;;8.3;99.9;;;;;;;;;
2021/03/11 01:14:43;;;;;;;14.57;10.27;;;8.3;99.9;;;;;;;;;
2021/03/11 01:14:53;;;;;;;14.57;10.27;;;8.3;99.9;;;;;;;;;
2021/03/11 01:15:02;;;;;;;14.57;10.27;;;8.3;99.9;;;;;;;;;
2021/03/11 01:15:08;;;;;;;14.57;10.27;;;8.3;99.9;;;;;;;;;
2021/03/11 01:15:13;;;;;;;14.57;10.27;;;8.3;99.9;;;;;;;;;
2021/03/11 01:15:28;;;;;;;14.57;10.27;;;8.3;99.9;;;;;;;;;
2021/03/11 01:15:39;;;;;;;14.57;10.27;;;8.3;99.9;;;;;;;;;
2021/03/11 01:15:54;;;;;;;15;10.77;;;8.3;99.9;;;;;;;;;
2021/03/11 01:16:02;;;;;;;15;10.77;;;8.3;99.9;;;;;;;;;
2021/03/11 01:16:04;;;;;;;15;10.77;;;8.3;99.9;;;;;;;;;